Time;durP1;ratioP1;P1;durP2;ratioP2;P2;SDS_P1;SDS_P2;PMS_P1;PMS_P2;Temp;Humidity;BMP_temperature;BMP_pressure;BME280_temperature;BME280_humidity;BME280_pressure;Samples;Min_cycle;Max_cycle;Signal;HPM_P1;HPM_P2
2022/02/18 00:01:00;;;;;;;23.65;3.45;;;;;;;;;;5087217;28;20058;-63
2022/02/18 00:03:27;;;;;;;16.73;3.15;;;;;;;;;;5091865;28;20047;-62
2022/02/18 00:05:54;;;;;;;24.33;4.20;;;;;;;;;;5092389;28;20036;-62
2022/02/18 00:08:22;;;;;;;13.45;3.47;;;;;;;;;;5082782;28;20041;-63
2022/02/18 00:10:49;;;;;;;22.23;4.10;;;;;;;;;;5079926;28;20052;-62
2022/02/18 00:13:15;;;;;;;18.50;3.80;;;;;;;;;;5090138;28;20127;-62
2022/02/18 00:15:41;;;;;;;16.27;3.00;;;;;;;;;;5083709;28;20045;-62
2022/02/18 00:18:07;;;;;;;21.88;3.63;;;;;;;;;;5084708;28;20127;-62
2022/02/18 00:20:34;;;;;;;30.10;3.88;;;;;;;;;;5092958;28;20298;-63
2022/02/18 00:23:01;;;;;;;22.20;3.70;;;;;;;;;;5090115;28;20131;-63
2022/02/18 00:25:27;;;;;;;18.80;2.65;;;;;;;;;;5083700;28;20064;-63
2022/02/18 00:27:53;;;;;;;22.50;3.63;;;;;;;;;;5084391;28;20110;-63
2022/02/18 00:30:19;;;;;;;25.30;3.17;;;;;;;;;;5083947;28;20070;-63
2022/02/18 00:32:46;;;;;;;18.83;3.75;;;;;;;;;;5081280;28;20086;-63
2022/02/18 00:35:14;;;;;;;30.45;4.00;;;;;;;;;;5084327;28;20040;-63
2022/02/18 00:37:40;;;;;;;29.13;3.65;;;;;;;;;;5082318;28;20058;-63
2022/02/18 00:40:06;;;;;;;18.25;2.65;;;;;;;;;;5084947;28;20037;-63
2022/02/18 00:42:32;;;;;;;23.38;3.15;;;;;;;;;;5102845;28;20048;-63
2022/02/18 00:44:59;;;;;;;29.55;4.40;;;;;;;;;;5090143;28;20049;-63
2022/02/18 00:47:25;;;;;;;19.58;3.67;;;;;;;;;;5083668;28;20082;-63
2022/02/18 00:49:51;;;;;;;25.83;4.20;;;;;;;;;;5084051;28;20079;-62
2022/02/18 00:52:17;;;;;;;27.17;3.95;;;;;;;;;;5090119;28;20104;-63
2022/02/18 00:54:43;;;;;;;18.85;3.28;;;;;;;;;;5084138;28;20055;-63
2022/02/18 00:57:10;;;;;;;26.05;3.92;;;;;;;;;;5084174;28;20074;-63
2022/02/18 00:59:37;;;;;;;27.02;3.33;;;;;;;;;;5083967;28;20068;-63
2022/02/18 01:02:03;;;;;;;22.27;4.18;;;;;;;;;;5091234;28;20124;-63
2022/02/18 01:04:29;;;;;;;21.67;4.78;;;;;;;;;;5079526;28;20117;-63
2022/02/18 01:06:55;;;;;;;16.13;3.05;;;;;;;;;;5078750;28;20075;-63
2022/02/18 01:09:21;;;;;;;17.50;3.00;;;;;;;;;;5079036;28;20095;-63
2022/02/18 01:11:47;;;;;;;18.58;4.10;;;;;;;;;;5101756;28;20076;-63
2022/02/18 01:14:13;;;;;;;21.33;4.38;;;;;;;;;;5102982;28;20129;-63
2022/02/18 01:16:39;;;;;;;25.02;4.22;;;;;;;;;;5103701;28;20135;-63
2022/02/18 01:19:05;;;;;;;18.45;4.75;;;;;;;;;;5103976;28;20040;-63
2022/02/18 01:21:32;;;;;;;21.85;4.13;;;;;;;;;;5086577;28;20048;-63
2022/02/18 01:23:58;;;;;;;18.98;3.58;;;;;;;;;;5083917;28;20086;-64
2022/02/18 01:26:24;;;;;;;22.95;4.88;;;;;;;;;;5083928;28;20102;-63
2022/02/18 01:28:50;;;;;;;15.20;3.53;;;;;;;;;;5083692;28;20119;-63
2022/02/18 01:31:16;;;;;;;21.88;3.78;;;;;;;;;;5097149;28;20040;-63
2022/02/18 01:33:42;;;;;;;23.10;3.28;;;;;;;;;;5097100;28;20040;-63
2022/02/18 01:36:08;;;;;;;21.77;3.80;;;;;;;;;;5081813;28;20071;-63
2022/02/18 01:38:34;;;;;;;24.90;3.85;;;;;;;;;;5087538;28;20052;-62
2022/02/18 01:41:01;;;;;;;20.10;3.65;;;;;;;;;;5088623;28;20037;-62
2022/02/18 01:43:27;;;;;;;31.90;4.38;;;;;;;;;;5087250;28;20584;-63
2022/02/18 01:45:53;;;;;;;24.05;4.40;;;;;;;;;;5102357;28;20112;-63
2022/02/18 01:48:19;;;;;;;21.98;2.70;;;;;;;;;;5086957;28;20057;-63
2022/02/18 01:50:45;;;;;;;23.15;3.80;;;;;;;;;;5090536;28;20062;-63
2022/02/18 01:53:12;;;;;;;22.60;3.75;;;;;;;;;;5107381;28;20065;-63
2022/02/18 01:55:38;;;;;;;26.95;3.90;;;;;;;;;;5107270;28;20048;-63
2022/02/18 01:58:04;;;;;;;20.60;3.22;;;;;;;;;;5107447;28;20058;-63
2022/02/18 02:00:32;;;;;;;18.55;2.97;;;;;;;;;;5100101;28;20058;-63
2022/02/18 02:02:59;;;;;;;14.57;3.05;;;;;;;;;;5086922;28;20047;-63
2022/02/18 02:05:25;;;;;;;23.92;3.40;;;;;;;;;;5086797;28;20453;-63
2022/02/18 02:07:51;;;;;;;19.35;4.13;;;;;;;;;;5102306;28;20051;-63
2022/02/18 02:10:18;;;;;;;19.42;3.40;;;;;;;;;;5091375;28;20047;-63
2022/02/18 02:12:51;;;;;;;15.82;3.63;;;;;;;;;;5097727;28;20084;-63
2022/02/18 02:15:19;;;;;;;18.13;3.47;;;;;;;;;;5086512;28;20041;-64
2022/02/18 02:17:46;;;;;;;22.20;3.05;;;;;;;;;;5086579;28;20075;-63
2022/02/18 02:20:12;;;;;;;21.45;3.20;;;;;;;;;;5089884;28;20032;-64
2022/02/18 02:22:42;;;;;;;15.52;3.05;;;;;;;;;;5106720;28;20107;-63
2022/02/18 02:25:08;;;;;;;19.10;3.70;;;;;;;;;;5087141;28;20131;-63
2022/02/18 02:27:34;;;;;;;20.55;3.10;;;;;;;;;;5086201;28;20048;-63
2022/02/18 02:30:01;;;;;;;21.15;3.38;;;;;;;;;;5085999;28;20492;-64
2022/02/18 02:32:27;;;;;;;16.65;3.42;;;;;;;;;;5086212;28;20055;-64
2022/02/18 02:34:53;;;;;;;21.90;4.35;;;;;;;;;;5102125;28;20488;-64
2022/02/18 02:37:20;;;;;;;12.45;3.22;;;;;;;;;;5101941;28;20048;-63
2022/02/18 02:39:46;;;;;;;19.17;3.42;;;;;;;;;;5086287;28;20100;-63
2022/02/18 02:42:12;;;;;;;26.00;3.55;;;;;;;;;;5085463;28;20123;-63
2022/02/18 02:44:38;;;;;;;15.43;2.38;;;;;;;;;;5084150;28;20080;-63
2022/02/18 02:47:04;;;;;;;19.98;3.75;;;;;;;;;;5069863;28;20086;-63
2022/02/18 02:49:32;;;;;;;21.45;3.30;;;;;;;;;;5065921;28;20052;-63
2022/02/18 02:51:58;;;;;;;20.48;4.65;;;;;;;;;;5065782;28;20396;-63
2022/02/18 02:54:25;;;;;;;23.80;3.38;;;;;;;;;;5066670;28;20048;-63
2022/02/18 02:56:52;;;;;;;18.60;3.92;;;;;;;;;;5085981;28;20041;-63
2022/02/18 02:59:18;;;;;;;14.57;2.35;;;;;;;;;;5084220;28;20041;-63
2022/02/18 03:01:45;;;;;;;16.85;3.67;;;;;;;;;;5084240;28;20048;-63
2022/02/18 03:04:11;;;;;;;16.00;3.78;;;;;;;;;;5084806;28;20506;-63
2022/02/18 03:06:37;;;;;;;20.75;3.58;;;;;;;;;;5065556;28;20048;-63
2022/02/18 03:09:08;;;;;;;23.02;3.10;;;;;;;;;;5065686;28;20049;-64
2022/02/18 03:11:34;;;;;;;16.25;2.92;;;;;;;;;;5081137;28;20112;-63
2022/02/18 03:14:00;;;;;;;15.05;3.85;;;;;;;;;;5077143;28;20089;-63
2022/02/18 03:16:26;;;;;;;18.17;2.90;;;;;;;;;;5078945;28;20025;-63
2022/02/18 03:18:52;;;;;;;22.15;3.70;;;;;;;;;;5065980;28;20105;-63
2022/02/18 03:21:18;;;;;;;15.00;2.50;;;;;;;;;;5064750;28;20041;-63
2022/02/18 03:23:46;;;;;;;19.38;3.30;;;;;;;;;;5065432;28;20462;-64
2022/02/18 03:26:15;;;;;;;19.35;3.30;;;;;;;;;;5079618;28;20094;-63
2022/02/18 03:28:42;;;;;;;14.93;3.10;;;;;;;;;;5085357;28;20041;-63
2022/02/18 03:31:09;;;;;;;22.47;3.77;;;;;;;;;;5083721;28;20119;-63
2022/02/18 03:33:41;;;;;;;17.17;3.33;;;;;;;;;;5085703;28;20048;-63
2022/02/18 03:36:08;;;;;;;16.58;2.72;;;;;;;;;;5070694;28;20040;-63
2022/02/18 03:38:34;;;;;;;21.50;3.20;;;;;;;;;;5065347;28;20037;-62
2022/02/18 03:41:01;;;;;;;18.20;2.67;;;;;;;;;;5080399;28;20049;-62
2022/02/18 03:43:28;;;;;;;13.13;2.92;;;;;;;;;;5080422;28;20041;-61
2022/02/18 03:45:54;;;;;;;15.63;3.00;;;;;;;;;;5080999;28;20045;-62
2022/02/18 03:48:20;;;;;;;13.48;2.55;;;;;;;;;;5065276;28;20060;-62
2022/02/18 03:50:46;;;;;;;13.85;2.42;;;;;;;;;;5079972;28;20076;-62
2022/02/18 03:53:14;;;;;;;16.58;2.30;;;;;;;;;;5064651;28;20076;-63
2022/02/18 03:55:40;;;;;;;15.50;2.70;;;;;;;;;;5068784;28;20048;-62
2022/02/18 03:58:06;;;;;;;9.05;2.20;;;;;;;;;;5084834;28;20062;-63
2022/02/18 04:00:32;;;;;;;18.17;2.33;;;;;;;;;;5083638;28;20048;-63
2022/02/18 04:02:58;;;;;;;10.50;2.28;;;;;;;;;;5085047;28;20092;-63
2022/02/18 04:05:24;;;;;;;10.20;2.30;;;;;;;;;;5082619;28;20104;-63
2022/02/18 04:07:51;;;;;;;15.18;2.42;;;;;;;;;;5063995;28;20525;-63
2022/02/18 04:10:17;;;;;;;20.92;2.15;;;;;;;;;;5079898;28;20108;-63
2022/02/18 04:12:43;;;;;;;12.82;2.17;;;;;;;;;;5064471;28;20040;-63
2022/02/18 04:15:09;;;;;;;17.65;2.10;;;;;;;;;;5079813;28;20059;-63
2022/02/18 04:17:35;;;;;;;9.93;1.70;;;;;;;;;;5099691;28;20046;-63
2022/02/18 04:20:01;;;;;;;14.98;2.33;;;;;;;;;;5083124;28;20052;-63
2022/02/18 04:22:28;;;;;;;11.70;1.70;;;;;;;;;;5083965;28;20044;-63
2022/02/18 04:24:54;;;;;;;16.13;2.35;;;;;;;;;;5084374;28;20043;-63
2022/02/18 04:27:20;;;;;;;11.57;2.75;;;;;;;;;;5065606;28;20057;-63
2022/02/18 04:29:46;;;;;;;11.35;2.53;;;;;;;;;;5079652;28;20071;-63
2022/02/18 04:32:12;;;;;;;13.75;2.20;;;;;;;;;;5064193;28;20515;-63
2022/02/18 04:34:38;;;;;;;11.45;2.17;;;;;;;;;;5064240;28;20086;-63
2022/02/18 04:37:05;;;;;;;19.73;2.25;;;;;;;;;;5064651;28;20067;-63
2022/02/18 04:39:31;;;;;;;7.68;1.63;;;;;;;;;;5064255;28;20072;-63
2022/02/18 04:41:57;;;;;;;15.55;2.22;;;;;;;;;;5064138;28;20129;-63
2022/02/18 04:44:23;;;;;;;18.45;3.05;;;;;;;;;;5064417;28;20052;-62
2022/02/18 04:46:49;;;;;;;14.90;3.13;;;;;;;;;;5078411;28;20054;-63
2022/02/18 04:49:15;;;;;;;11.77;1.95;;;;;;;;;;5084158;28;20068;-63
2022/02/18 04:51:41;;;;;;;12.48;1.80;;;;;;;;;;5083499;28;20053;-63
2022/02/18 04:54:08;;;;;;;13.57;2.47;;;;;;;;;;5082897;28;20043;-63
2022/02/18 04:56:35;;;;;;;9.38;2.25;;;;;;;;;;5066183;28;20060;-63
2022/02/18 04:59:02;;;;;;;9.60;1.50;;;;;;;;;;5079267;28;20053;-63
2022/02/18 05:01:28;;;;;;;19.05;2.28;;;;;;;;;;5063398;28;20065;-63
2022/02/18 05:03:54;;;;;;;11.00;2.17;;;;;;;;;;5063860;28;20041;-63
2022/02/18 05:06:20;;;;;;;9.20;2.50;;;;;;;;;;5076818;28;20144;-63
2022/02/18 05:08:46;;;;;;;11.07;2.00;;;;;;;;;;5082760;28;20040;-62
2022/02/18 05:11:13;;;;;;;18.52;3.55;;;;;;;;;;5085290;28;20103;-62
2022/02/18 05:13:39;;;;;;;6.85;2.35;;;;;;;;;;5088133;28;20044;-63
2022/02/18 05:16:05;;;;;;;14.43;2.17;;;;;;;;;;5075538;28;20063;-63
2022/02/18 05:18:32;;;;;;;16.00;2.20;;;;;;;;;;5083129;28;20041;-62
2022/02/18 05:20:58;;;;;;;14.73;2.35;;;;;;;;;;5066999;28;20045;-62
2022/02/18 05:23:25;;;;;;;14.52;3.05;;;;;;;;;;5067635;28;20041;-62
2022/02/18 05:25:51;;;;;;;9.65;2.60;;;;;;;;;;5076818;28;20067;-62
2022/02/18 05:28:17;;;;;;;13.25;2.20;;;;;;;;;;5087696;28;20040;-62
2022/02/18 05:30:44;;;;;;;15.05;2.83;;;;;;;;;;5087394;28;20040;-63
2022/02/18 05:33:12;;;;;;;14.68;2.85;;;;;;;;;;5087545;28;20048;-62
2022/02/18 05:35:39;;;;;;;18.63;3.40;;;;;;;;;;5080177;28;20117;-62
2022/02/18 05:38:05;;;;;;;11.68;2.42;;;;;;;;;;5067067;28;20105;-63
2022/02/18 05:40:31;;;;;;;16.88;3.85;;;;;;;;;;5067603;28;20057;-62
2022/02/18 05:42:57;;;;;;;15.10;2.58;;;;;;;;;;5076605;28;20067;-62
2022/02/18 05:45:24;;;;;;;21.08;3.40;;;;;;;;;;5082040;28;20145;-63
2022/02/18 05:47:54;;;;;;;18.52;3.83;;;;;;;;;;5081529;28;20048;-63
2022/02/18 05:50:20;;;;;;;27.42;4.20;;;;;;;;;;5081691;28;20052;-64
2022/02/18 05:52:47;;;;;;;17.33;3.83;;;;;;;;;;5089969;28;20105;-65
2022/02/18 05:55:13;;;;;;;17.08;4.28;;;;;;;;;;5086682;28;20100;-63
2022/02/18 05:57:39;;;;;;;18.58;4.25;;;;;;;;;;5085193;28;20048;-63
2022/02/18 06:00:07;;;;;;;21.38;4.00;;;;;;;;;;5069770;28;20055;-63
2022/02/18 06:02:34;;;;;;;13.68;3.47;;;;;;;;;;5087038;28;20051;-63
2022/02/18 06:05:01;;;;;;;20.52;3.70;;;;;;;;;;5086738;28;20123;-63
2022/02/18 06:07:28;;;;;;;16.63;4.18;;;;;;;;;;5072950;28;20052;-63
2022/02/18 06:09:55;;;;;;;17.52;3.88;;;;;;;;;;5086362;28;20062;-63
2022/02/18 06:12:21;;;;;;;17.55;5.05;;;;;;;;;;5084164;28;20454;-63
2022/02/18 06:14:50;;;;;;;15.18;5.13;;;;;;;;;;5079638;28;20109;-64
2022/02/18 06:17:20;;;;;;;19.58;5.15;;;;;;;;;;5067282;28;20095;-63
2022/02/18 06:19:46;;;;;;;20.83;4.82;;;;;;;;;;5086566;28;20043;-63
2022/02/18 06:22:12;;;;;;;15.65;3.75;;;;;;;;;;5103312;28;20044;-63
2022/02/18 06:24:39;;;;;;;17.95;4.40;;;;;;;;;;5080057;28;20126;-64
2022/02/18 06:27:05;;;;;;;24.92;4.55;;;;;;;;;;5088016;28;20523;-64
2022/02/18 06:29:31;;;;;;;23.67;4.00;;;;;;;;;;5067009;28;20128;-64
2022/02/18 06:31:57;;;;;;;20.40;3.88;;;;;;;;;;5104225;28;20119;-63
2022/02/18 06:34:24;;;;;;;19.75;4.05;;;;;;;;;;5086406;28;20045;-64
2022/02/18 06:36:51;;;;;;;19.88;4.32;;;;;;;;;;5085989;28;20048;-63
2022/02/18 06:39:21;;;;;;;21.58;6.07;;;;;;;;;;5085144;28;20102;-63
2022/02/18 06:41:47;;;;;;;18.75;4.00;;;;;;;;;;5080707;28;20108;-63
2022/02/18 06:44:14;;;;;;;25.88;5.25;;;;;;;;;;5070215;28;20041;-63
2022/02/18 06:46:40;;;;;;;29.90;5.65;;;;;;;;;;5085259;28;20059;-64
2022/02/18 06:49:06;;;;;;;27.40;5.68;;;;;;;;;;5086158;28;20071;-63
2022/02/18 06:51:32;;;;;;;27.10;6.75;;;;;;;;;;5085342;28;20079;-63
2022/02/18 06:53:58;;;;;;;17.70;4.80;;;;;;;;;;5086222;28;20499;-63
2022/02/18 06:56:24;;;;;;;26.02;5.40;;;;;;;;;;5083380;28;20049;-63
2022/02/18 06:58:52;;;;;;;28.77;6.05;;;;;;;;;;5085830;28;20096;-64
2022/02/18 07:01:18;;;;;;;25.42;5.10;;;;;;;;;;5087256;28;20079;-64
2022/02/18 07:03:44;;;;;;;26.58;5.80;;;;;;;;;;5091904;28;20104;-64
2022/02/18 07:06:11;;;;;;;28.05;6.00;;;;;;;;;;5085297;28;20056;-64
2022/02/18 07:08:37;;;;;;;25.88;5.25;;;;;;;;;;5084486;28;20114;-64
2022/02/18 07:11:03;;;;;;;26.02;5.63;;;;;;;;;;5085601;28;20064;-63
2022/02/18 07:13:29;;;;;;;27.63;5.80;;;;;;;;;;5093443;28;20107;-63
2022/02/18 07:15:56;;;;;;;30.70;5.47;;;;;;;;;;5105094;28;20070;-63
2022/02/18 07:18:22;;;;;;;25.10;6.05;;;;;;;;;;5105579;28;20052;-63
2022/02/18 07:20:48;;;;;;;24.38;5.75;;;;;;;;;;5104062;28;20130;-64
2022/02/18 07:23:15;;;;;;;25.38;5.63;;;;;;;;;;5085324;28;20112;-64
2022/02/18 07:25:41;;;;;;;30.40;6.07;;;;;;;;;;5085293;28;20041;-62
2022/02/18 07:28:07;;;;;;;21.42;5.68;;;;;;;;;;5085140;28;20080;-64
2022/02/18 07:30:33;;;;;;;25.48;5.88;;;;;;;;;;5084999;28;20064;-65
2022/02/18 07:32:59;;;;;;;27.42;6.68;;;;;;;;;;5103814;28;20108;-64
2022/02/18 07:35:32;;;;;;;38.70;7.72;;;;;;;;;;5105474;28;20289;-64
2022/02/18 07:37:59;;;;;;;30.25;7.18;;;;;;;;;;5105237;28;20046;-64
2022/02/18 07:40:25;;;;;;;32.30;7.65;;;;;;;;;;5104190;28;20052;-63
2022/02/18 07:42:51;;;;;;;35.83;8.13;;;;;;;;;;5087145;28;20504;-64
2022/02/18 07:45:17;;;;;;;38.80;8.25;;;;;;;;;;5084901;28;20044;-64
2022/02/18 07:47:43;;;;;;;37.63;8.63;;;;;;;;;;5082963;28;20116;-65
2022/02/18 07:50:10;;;;;;;43.08;9.85;;;;;;;;;;5083750;28;20105;-65
2022/02/18 07:52:37;;;;;;;26.20;8.55;;;;;;;;;;5085373;28;20048;-65
2022/02/18 07:55:04;;;;;;;35.88;9.23;;;;;;;;;;5084068;28;20078;-65
2022/02/18 07:57:30;;;;;;;33.47;8.45;;;;;;;;;;5084521;28;20068;-65
2022/02/18 07:59:56;;;;;;;35.05;9.77;;;;;;;;;;5084866;28;20045;-65
2022/02/18 08:02:22;;;;;;;41.25;12.00;;;;;;;;;;5082869;28;20049;-64
2022/02/18 08:04:48;;;;;;;37.30;11.02;;;;;;;;;;5075520;28;20565;-65
2022/02/18 08:07:14;;;;;;;46.03;11.68;;;;;;;;;;5064260;28;20053;-64
2022/02/18 08:09:40;;;;;;;50.88;12.32;;;;;;;;;;5094864;28;20083;-65
2022/02/18 08:12:07;;;;;;;43.78;12.27;;;;;;;;;;5092337;28;20533;-65
2022/02/18 08:14:33;;;;;;;35.92;11.52;;;;;;;;;;5069471;28;20055;-65
2022/02/18 08:16:59;;;;;;;46.00;12.00;;;;;;;;;;5078950;28;20123;-65
2022/02/18 08:19:25;;;;;;;44.40;12.13;;;;;;;;;;5072371;28;20109;-65
2022/02/18 08:21:51;;;;;;;55.42;13.98;;;;;;;;;;5095345;28;20049;-65
2022/02/18 08:24:19;;;;;;;47.65;12.40;;;;;;;;;;5083485;28;20100;-65
2022/02/18 08:26:46;;;;;;;46.30;11.32;;;;;;;;;;5089788;28;20052;-65
2022/02/18 08:29:12;;;;;;;38.43;12.67;;;;;;;;;;5094136;28;20050;-65
2022/02/18 08:31:38;;;;;;;54.33;12.63;;;;;;;;;;5083950;28;20047;-65
2022/02/18 08:34:04;;;;;;;47.05;11.40;;;;;;;;;;5075184;28;20052;-65
2022/02/18 08:36:32;;;;;;;48.40;10.40;;;;;;;;;;5084775;28;20040;-65
2022/02/18 08:38:58;;;;;;;46.45;10.48;;;;;;;;;;5086728;28;20514;-65
2022/02/18 08:41:24;;;;;;;40.63;12.57;;;;;;;;;;5083874;28;20044;-65
2022/02/18 08:43:50;;;;;;;48.50;11.60;;;;;;;;;;5087026;28;20076;-65
2022/02/18 08:46:16;;;;;;;28.42;9.85;;;;;;;;;;5083225;28;20097;-64
2022/02/18 08:48:42;;;;;;;40.75;10.02;;;;;;;;;;5075461;28;20108;-64
2022/02/18 08:51:08;;;;;;;34.80;8.70;;;;;;;;;;5079462;28;20557;-64
2022/02/18 08:53:35;;;;;;;42.42;8.88;;;;;;;;;;5079904;28;20166;-63
2022/02/18 08:56:01;;;;;;;23.88;6.25;;;;;;;;;;5082066;28;20075;-63
2022/02/18 08:58:27;;;;;;;24.55;6.55;;;;;;;;;;5082063;28;20571;-63
2022/02/18 09:00:53;;;;;;;20.65;4.90;;;;;;;;;;5079079;28;20036;-64
2022/02/18 09:03:19;;;;;;;21.13;5.47;;;;;;;;;;5069099;28;20073;-64
2022/02/18 09:05:46;;;;;;;30.75;7.00;;;;;;;;;;5076366;28;20446;-64
2022/02/18 09:08:13;;;;;;;17.65;4.85;;;;;;;;;;5079689;28;20053;-64
2022/02/18 09:10:41;;;;;;;24.77;6.13;;;;;;;;;;5072654;28;20052;-64
2022/02/18 09:13:07;;;;;;;24.10;6.05;;;;;;;;;;5067720;28;20278;-64
2022/02/18 09:15:34;;;;;;;22.40;5.97;;;;;;;;;;5086095;28;20111;-64
2022/02/18 09:18:00;;;;;;;23.98;6.53;;;;;;;;;;5081117;28;20052;-64
2022/02/18 09:20:26;;;;;;;17.15;6.65;;;;;;;;;;5085136;28;20039;-64
2022/02/18 09:22:53;;;;;;;18.75;4.35;;;;;;;;;;5083232;28;20044;-64
2022/02/18 09:25:19;;;;;;;22.65;5.95;;;;;;;;;;5069845;28;20052;-63
2022/02/18 09:27:46;;;;;;;20.50;6.10;;;;;;;;;;5063640;28;20104;-64
2022/02/18 09:30:12;;;;;;;19.92;5.20;;;;;;;;;;5063436;28;20041;-63
2022/02/18 09:32:38;;;;;;;12.85;4.88;;;;;;;;;;5066456;28;20056;-64
2022/02/18 09:35:05;;;;;;;13.55;4.90;;;;;;;;;;5065151;28;20040;-65
2022/02/18 09:37:31;;;;;;;12.93;5.47;;;;;;;;;;5069136;28;20041;-64
2022/02/18 09:39:57;;;;;;;14.35;5.00;;;;;;;;;;5083497;28;20372;-64
2022/02/18 09:42:23;;;;;;;16.52;5.63;;;;;;;;;;5083545;28;20116;-63
2022/02/18 09:44:50;;;;;;;14.85;5.60;;;;;;;;;;5082806;28;20040;-64
2022/02/18 09:47:17;;;;;;;13.40;6.13;;;;;;;;;;5081739;28;20057;-64
2022/02/18 09:49:43;;;;;;;7.55;3.63;;;;;;;;;;5075530;28;20037;-65
2022/02/18 09:52:11;;;;;;;11.25;5.15;;;;;;;;;;5079118;28;20033;-63
2022/02/18 09:54:37;;;;;;;12.43;5.63;;;;;;;;;;5082687;28;20068;-65
2022/02/18 09:57:03;;;;;;;16.23;5.72;;;;;;;;;;5083230;28;20044;-65
2022/02/18 09:59:30;;;;;;;18.73;6.07;;;;;;;;;;5080395;28;20041;-70
2022/02/18 10:01:56;;;;;;;15.13;5.57;;;;;;;;;;5086054;28;20095;-70
2022/02/18 10:04:24;;;;;;;13.52;5.50;;;;;;;;;;5080665;28;20104;-69
2022/02/18 10:06:50;;;;;;;17.35;4.93;;;;;;;;;;5083945;28;20052;-75
2022/02/18 10:09:16;;;;;;;15.13;5.53;;;;;;;;;;5084258;28;20056;-67
2022/02/18 10:11:52;;;;;;;13.48;5.53;;;;;;;;;;5065822;28;20115;-68
2022/02/18 10:14:18;;;;;;;10.77;4.50;;;;;;;;;;5090094;28;20055;-72
2022/02/18 10:16:45;;;;;;;11.57;5.68;;;;;;;;;;5074024;28;20505;-72
2022/02/18 10:19:11;;;;;;;18.88;6.00;;;;;;;;;;5089362;28;20039;-73
2022/02/18 10:21:39;;;;;;;12.02;6.03;;;;;;;;;;5082280;28;20079;-70
2022/02/18 10:24:05;;;;;;;20.23;6.40;;;;;;;;;;5085202;28;20096;-77
2022/02/18 10:26:37;;;;;;;9.77;5.15;;;;;;;;;;5082777;28;20040;-76
2022/02/18 10:29:03;;;;;;;12.15;5.68;;;;;;;;;;5083817;28;20047;-75
2022/02/18 10:31:30;;;;;;;15.98;5.43;;;;;;;;;;5086341;28;20048;-68
2022/02/18 10:34:06;;;;;;;11.98;5.50;;;;;;;;;;5087324;28;20044;-67
2022/02/18 10:36:50;;;;;;;21.38;6.25;;;;;;;;;;5083926;28;20044;-65
2022/02/18 10:39:27;;;;;;;22.20;6.97;;;;;;;;;;5082576;28;20045;-66
2022/02/18 10:41:57;;;;;;;18.70;7.28;;;;;;;;;;5083843;28;20412;-67
2022/02/18 10:44:25;;;;;;;14.70;6.53;;;;;;;;;;5085513;28;20112;-64
2022/02/18 10:46:55;;;;;;;11.65;5.50;;;;;;;;;;5080801;28;20048;-68
2022/02/18 10:49:36;;;;;;;13.85;6.65;;;;;;;;;;5077790;28;20059;-67
2022/02/18 10:52:10;;;;;;;13.00;5.95;;;;;;;;;;5086146;28;20051;-70
2022/02/18 10:54:36;;;;;;;18.13;6.90;;;;;;;;;;5085613;28;20105;-70
2022/02/18 10:57:23;;;;;;;18.20;7.05;;;;;;;;;;5080197;28;20131;-70
2022/02/18 10:59:50;;;;;;;11.73;5.97;;;;;;;;;;5084175;28;20059;-75
2022/02/18 11:02:35;;;;;;;18.08;7.38;;;;;;;;;;5084248;28;20130;-72
2022/02/18 11:05:19;;;;;;;15.27;7.15;;;;;;;;;;5098518;28;20097;-73
2022/02/18 11:07:45;;;;;;;11.50;6.32;;;;;;;;;;5085534;28;20071;-71
2022/02/18 11:10:28;;;;;;;18.33;7.38;;;;;;;;;;5085607;28;20122;-65
2022/02/18 11:12:56;;;;;;;13.48;6.95;;;;;;;;;;5086019;28;20044;-64
2022/02/18 11:15:23;;;;;;;12.85;6.75;;;;;;;;;;5092785;28;20079;-65
2022/02/18 11:17:50;;;;;;;11.73;6.70;;;;;;;;;;5075580;28;20447;-65
2022/02/18 11:20:16;;;;;;;10.07;6.45;;;;;;;;;;5076135;28;20074;-67
2022/02/18 11:22:44;;;;;;;14.45;6.72;;;;;;;;;;5085434;28;20048;-69
2022/02/18 11:25:11;;;;;;;11.05;6.07;;;;;;;;;;5078004;28;20048;-66
2022/02/18 11:27:38;;;;;;;15.13;6.80;;;;;;;;;;5083533;28;20052;-68
2022/02/18 11:30:05;;;;;;;14.70;7.20;;;;;;;;;;5088159;28;20048;-71
2022/02/18 11:32:36;;;;;;;7.68;5.18;;;;;;;;;;5084787;28;20052;-68
2022/02/18 11:35:17;;;;;;;8.18;5.75;;;;;;;;;;5088160;28;20033;-65
2022/02/18 11:38:06;;;;;;;11.23;5.22;;;;;;;;;;5080270;28;20095;-67
2022/02/18 11:40:35;;;;;;;8.63;5.72;;;;;;;;;;5079724;28;20057;-66
2022/02/18 11:43:21;;;;;;;9.75;5.88;;;;;;;;;;5084882;28;20116;-66
2022/02/18 11:45:51;;;;;;;9.25;5.47;;;;;;;;;;5083433;28;20048;-67
2022/02/18 11:48:53;;;;;;;8.73;5.40;;;;;;;;;;5083112;28;20080;-66
2022/02/18 11:51:26;;;;;;;5.82;4.22;;;;;;;;;;5076633;28;20053;-67
2022/02/18 11:53:56;;;;;;;6.53;5.38;;;;;;;;;;5045357;28;20052;-63
2022/02/18 11:56:41;;;;;;;9.20;5.10;;;;;;;;;;5061168;28;20116;-62
2022/02/18 11:59:08;;;;;;;6.60;4.07;;;;;;;;;;5078634;28;20542;-62
2022/02/18 12:01:53;;;;;;;8.05;4.13;;;;;;;;;;5061519;28;20106;-61
2022/02/18 12:04:19;;;;;;;6.90;5.00;;;;;;;;;;5061504;28;20564;-61
2022/02/18 12:07:04;;;;;;;7.05;4.00;;;;;;;;;;5060315;28;20063;-64
2022/02/18 12:09:48;;;;;;;6.72;4.32;;;;;;;;;;5062576;28;20083;-62
2022/02/18 12:12:23;;;;;;;8.27;5.07;;;;;;;;;;5046310;28;20075;-68
2022/02/18 12:14:50;;;;;;;6.65;4.70;;;;;;;;;;5058367;28;20186;-68
2022/02/18 12:17:18;;;;;;;11.32;5.43;;;;;;;;;;5047756;28;20076;-65
2022/02/18 12:19:45;;;;;;;6.95;4.78;;;;;;;;;;5040155;28;20126;-67
2022/02/18 12:22:11;;;;;;;7.90;4.20;;;;;;;;;;5043696;28;20033;-68
2022/02/18 12:24:47;;;;;;;8.18;5.22;;;;;;;;;;5046164;28;20092;-69
2022/02/18 12:27:22;;;;;;;7.28;5.30;;;;;;;;;;5076129;28;20079;-69
2022/02/18 12:29:48;;;;;;;6.82;5.03;;;;;;;;;;5078543;28;20068;-65
2022/02/18 12:32:15;;;;;;;7.30;4.38;;;;;;;;;;5079820;28;20124;-68
2022/02/18 12:34:41;;;;;;;9.25;5.15;;;;;;;;;;5086161;28;20166;-68
2022/02/18 12:37:08;;;;;;;5.75;5.00;;;;;;;;;;5073204;28;20071;-68
2022/02/18 12:39:44;;;;;;;7.55;4.97;;;;;;;;;;5066028;28;20059;-69
2022/02/18 12:42:12;;;;;;;9.88;6.00;;;;;;;;;;5070276;28;20040;-70
2022/02/18 12:44:47;;;;;;;7.40;5.22;;;;;;;;;;5082259;28;20048;-69
2022/02/18 12:47:18;;;;;;;9.25;6.07;;;;;;;;;;5091019;28;20074;-69
2022/02/18 12:49:45;;;;;;;10.27;6.35;;;;;;;;;;5083535;28;20056;-68
2022/02/18 12:52:11;;;;;;;7.50;4.30;;;;;;;;;;5072970;28;20041;-71
2022/02/18 12:54:54;;;;;;;3.58;2.88;;;;;;;;;;5082890;28;20186;-70
2022/02/18 12:57:22;;;;;;;6.72;2.83;;;;;;;;;;5064492;28;20079;-70
2022/02/18 12:59:49;;;;;;;7.40;1.83;;;;;;;;;;5064758;28;20073;-72
2022/02/18 13:02:33;;;;;;;4.03;1.38;;;;;;;;;;5078722;28;20048;-71
2022/02/18 13:05:18;;;;;;;6.38;1.60;;;;;;;;;;5083555;28;20098;-72
2022/02/18 13:07:44;;;;;;;8.45;1.45;;;;;;;;;;5070703;28;20056;-72
2022/02/18 13:10:13;;;;;;;3.33;1.25;;;;;;;;;;5079945;28;20041;-71
2022/02/18 13:12:43;;;;;;;3.10;0.80;;;;;;;;;;5080572;28;20084;-70
2022/02/18 13:15:14;;;;;;;2.35;1.10;;;;;;;;;;5080554;28;20049;-71
2022/02/18 13:17:45;;;;;;;7.03;1.67;;;;;;;;;;5081956;28;20044;-69
2022/02/18 13:20:13;;;;;;;8.15;1.48;;;;;;;;;;5088346;28;20094;-70
2022/02/18 13:22:39;;;;;;;8.52;1.75;;;;;;;;;;5086756;28;20041;-70
2022/02/18 13:25:24;;;;;;;11.75;2.15;;;;;;;;;;5084881;28;20036;-66
2022/02/18 13:27:51;;;;;;;9.23;2.10;;;;;;;;;;5079467;28;20106;-63
2022/02/18 13:30:22;;;;;;;15.20;3.00;;;;;;;;;;5079016;28;20032;-65
2022/02/18 13:32:56;;;;;;;11.20;3.00;;;;;;;;;;5072185;28;20056;-68
2022/02/18 13:35:23;;;;;;;11.43;2.55;;;;;;;;;;5079235;28;20045;-72
2022/02/18 13:37:49;;;;;;;18.02;2.17;;;;;;;;;;5072622;28;20499;-70
2022/02/18 13:40:15;;;;;;;14.18;3.40;;;;;;;;;;5097232;28;20088;-67
2022/02/18 13:42:55;;;;;;;22.33;3.22;;;;;;;;;;5074653;28;20124;-70
2022/02/18 13:45:21;;;;;;;14.25;3.30;;;;;;;;;;5081204;28;20039;-71
2022/02/18 13:47:48;;;;;;;19.48;3.22;;;;;;;;;;5071756;28;20061;-72
2022/02/18 13:50:14;;;;;;;15.05;3.40;;;;;;;;;;5078115;28;20048;-71
2022/02/18 13:52:41;;;;;;;15.13;3.40;;;;;;;;;;5090142;28;20041;-66
2022/02/18 13:55:08;;;;;;;16.20;2.50;;;;;;;;;;5081570;28;20059;-66
2022/02/18 13:57:35;;;;;;;20.38;2.60;;;;;;;;;;5082869;28;20067;-73
2022/02/18 14:00:01;;;;;;;18.17;2.67;;;;;;;;;;5074523;28;20053;-73
2022/02/18 14:02:27;;;;;;;20.48;3.80;;;;;;;;;;5089789;28;20078;-74
2022/02/18 14:04:55;;;;;;;16.65;3.00;;;;;;;;;;5079285;28;21647;-67
2022/02/18 14:07:25;;;;;;;17.60;3.13;;;;;;;;;;5084108;28;20055;-69
2022/02/18 14:09:52;;;;;;;14.48;3.17;;;;;;;;;;5089674;28;20074;-70
2022/02/18 14:12:37;;;;;;;19.23;3.08;;;;;;;;;;5090099;28;20037;-69
2022/02/18 14:15:05;;;;;;;14.18;3.00;;;;;;;;;;5084804;28;20135;-70
2022/02/18 14:17:31;;;;;;;16.88;2.78;;;;;;;;;;5072528;28;20052;-68
2022/02/18 14:19:59;;;;;;;21.70;4.20;;;;;;;;;;5075743;28;20105;-69
2022/02/18 14:22:28;;;;;;;19.75;4.00;;;;;;;;;;5067893;28;20045;-68
2022/02/18 14:24:54;;;;;;;17.85;3.38;;;;;;;;;;5067065;28;20045;-71
2022/02/18 14:27:21;;;;;;;22.92;3.30;;;;;;;;;;5078716;28;20123;-72
2022/02/18 14:29:55;;;;;;;24.63;3.47;;;;;;;;;;5086050;28;20090;-75
2022/02/18 14:32:28;;;;;;;26.08;4.07;;;;;;;;;;5095079;28;20043;-68
2022/02/18 14:35:02;;;;;;;26.65;4.50;;;;;;;;;;5084948;28;20497;-64